Fresno Yosemite International Airport
KFAT : now visible

Airfield :











YOU CAN JOIN US ON...

 
LOGIN :

Register | Disclaimer

   EN    FR    IT 

 









Legend :    VFR   Marginal VFR   IFR   Intensive IFR   Very Intensive IFR
Visi :
Ceiling :
>= 8 km
>= 3000ft
5 to 8 km
1000 to 3000 ft
1500m to 5 km
500 to 1000 ft
800 to 1500m
200 to 500 ft
< 800m
< 200 ft
Symbols :   Thunderstorms  Fog  Heavy snow  Heavy precipitations  Wind > 20 kt







- Airport Elevation : 336 ft
- IATA code : FAT


KFAT - Fresno Yosemite International

CURRENT METAR :
  • 260353Z 31012KT 10SM CLR 34/15 A2987 RMK AO2 SLP109 T03440150

EXPIRED METARs :
  • 260253Z 31008KT 10SM FEW150 36/15 A2985 RMK AO2 SLP104 HZ DSNT ALQDS T03610150 55004
  • 260153Z 31010KT 10SM FEW100 38/13 A2984 RMK AO2 SLP102 HZ DSNT NE-SE T03780128

TAF KFAT
Valid from the 26 at 00:00 until the 27 at 00:00 UTC


252320Z 2600/2624 VRB06KT P6SM SKC
No reported NOTAMs for that airfield.



MET'MAP, your aeronautical weather chart ! - Copyright ORBIFLY December 2007 - Disclaimer

ORBIFLY MET'MAP TEAM :

Programming & Development : Alexandra Zaïnal
Concept & Development : Baudouin d'Aumeries
Co-Development & Prog : Marc-Olivier Méhu
Technical & hardware support : Manuel Goepfert

Contact : metmap@orbifly.com




SOURCES & CREDITS :

   NOAA       Earth
Advisory